Bremen — C6JC3 — position and weather

sailwx.info

Track history (hours):
 
Tides and Currents Weather Stations Pressure Air Temp Water Temp Dewpoint Dewpoint Depression Visibility Wind Speed Wind Dir Waves Ship Positions

Bremen

Operator: Hapag-Lloyd Container Line

Last reported at 2018-Jun-17 02:02 UTC. Time now 2018-Jun-20 02:09 UTC.
Position N 55°52' W 006°33'.

Length 111.5 m; beam 17 m; draft 4.8 m.

Type: Ship. MMSI: 308429000.

Date/timePositionNaut miles runAvg speedWind from/ knotsBaromVisibWave heightAir tempDewpointWater temp
2018-Jun-17 02:02N 55°52' W 006°33'1 5.7
2018-Jun-17 01:57N 55°52' W 006°33'3 5.7
2018-Jun-17 01:29N 55°49' W 006°33'3 6.1
2018-Jun-17 01:00N 55°46' W 006°33'4 7.6
2018-Jun-17 00:30N 55°43' W 006°34'5 9.1
2018-Jun-17 00:00N 55°38' W 006°31'4 8.0
2018-Jun-16 23:30N 55°35' W 006°29'3 6.7
2018-Jun-16 23:00N 55°31' W 006°27'3 6.8
2018-Jun-16 22:30N 55°28' W 006°25'3 6.6
2018-Jun-16 22:00N 55°25' W 006°23'3 6.6
2018-Jun-16 21:30N 55°22' W 006°21'3 5.5
2018-Jun-16 21:00N 55°19' W 006°19'3 5.9
2018-Jun-16 20:30N 55°17' W 006°16'3 0.3
2018-Jun-16 12:27N 55°17' W 006°12'4 8.0
2018-Jun-16 12:00N 55°14' W 006°13'1 1.8
2018-Jun-16 11:22N 55°13' W 006°14'0 0.1
2018-Jun-16 10:52N 55°13' W 006°14'0 0.0
2018-Jun-16 10:22N 55°13' W 006°14'0 0.0
2018-Jun-16 09:52N 55°13' W 006°14'0 0.0
2018-Jun-16 09:22N 55°13' W 006°14'0 0.1
2018-Jun-16 08:40N 55°13' W 006°14'0 0.0
2018-Jun-16 08:25N 55°13' W 006°14'0 0.0
2018-Jun-16 07:55N 55°13' W 006°14'0 0.0
2018-Jun-16 07:27N 55°13' W 006°14'0 0.0
2018-Jun-16 06:50N 55°13' W 006°14'0 0.0
2018-Jun-16 06:23N 55°13' W 006°14'0 0.5
2018-Jun-16 05:59N 55°13' W 006°14'3 6.9
2018-Jun-16 05:30N 55°14' W 006°08'3 6.9
2018-Jun-16 05:00N 55°13' W 006°02'5 8.9
2018-Jun-16 04:30N 55°09' W 005°58'4 8.5
2018-Jun-16 04:00N 55°05' W 005°55'12 8.5
2018-Jun-16 02:34N 54°55' W 005°45'1 8.1
2018-Jun-16 02:25N 54°54' W 005°44'4 8.0
2018-Jun-16 01:58N 54°51' W 005°40'4 8.4
2018-Jun-16 01:30N 54°48' W 005°36'5 9.4
2018-Jun-16 01:00N 54°44' W 005°31'510.0
2018-Jun-16 00:30N 54°40' W 005°26'5 9.3
2018-Jun-16 00:00N 54°36' W 005°22'4 8.9
2018-Jun-15 23:30N 54°32' W 005°19'4 8.2
2018-Jun-15 23:00N 54°28' W 005°16'4 9.0
2018-Jun-15 22:30N 54°24' W 005°12'4 8.1
2018-Jun-15 22:00N 54°21' W 005°09'4 8.3
2018-Jun-15 21:30N 54°17' W 005°06'5 8.6
2018-Jun-15 20:58N 54°13' W 005°02'13 8.5
2018-Jun-15 19:24N 54°01' W 004°51'64 3.3
2018-Jun-15 00:09N 52°58' W 004°57'69 4.0
2018-Jun-14 06:53N 51°51' W 005°27'512.3
2018-Jun-14 06:30N 51°48' W 005°21'4 8.5
2018-Jun-14 06:00N 51°45' W 005°16'3 5.1
2018-Jun-14 05:30N 51°44' W 005°20'611.9
2018-Jun-14 05:00N 51°38' W 005°22'612.0
2018-Jun-14 04:30N 51°33' W 005°25'510.9
2018-Jun-14 04:00N 51°27' W 005°26'3110.3
2018-Jun-14 00:59N 50°57' W 005°37'610.3
2018-Jun-14 00:26N 50°51' W 005°40'410.0
2018-Jun-13 23:59N 50°47' W 005°42'510.9
2018-Jun-13 23:29N 50°42' W 005°45'510.8
2018-Jun-13 23:00N 50°37' W 005°47'510.5
2018-Jun-13 22:30N 50°32' W 005°49'510.5
2018-Jun-13 22:00N 50°27' W 005°51'1510.5
2018-Jun-13 20:35N 50°12' W 005°53'710.7
2018-Jun-13 19:54N 50°05' W 005°52'  
2018-Jun-11 14:00N 42°36' W 008°42'81 4.4 1017.0 5.4 18.0 16.0
2018-Jun-10 19:22N 41°15' W 008°53'3 9.2
2018-Jun-10 19:00N 41°13' W 008°50'510.1
2018-Jun-10 18:30N 41°10' W 008°44'2 3.1
2018-Jun-10 17:58N 41°11' W 008°42'0 0.0
2018-Jun-10 17:30N 41°11' W 008°42'0 0.0
2018-Jun-10 17:00N 41°11' W 008°42'0 0.0
2018-Jun-10 16:29N 41°11' W 008°42'0 0.0
2018-Jun-10 15:59N 41°11' W 008°42'0 0.0
2018-Jun-10 15:29N 41°11' W 008°42'0 0.0
2018-Jun-10 14:59N 41°11' W 008°42'0 0.0
2018-Jun-10 13:59N 41°11' W 008°42'0 0.0
2018-Jun-10 13:29N 41°11' W 008°42'0 0.0
2018-Jun-10 12:59N 41°11' W 008°42'0 0.0
2018-Jun-10 12:29N 41°11' W 008°42'0 0.0
2018-Jun-10 11:59N 41°11' W 008°42'0 0.0
2018-Jun-10 11:25N 41°11' W 008°42'0 0.0
2018-Jun-10 11:00N 41°11' W 008°42'0 0.0
2018-Jun-10 10:28N 41°11' W 008°42'0 0.0
2018-Jun-10 09:58N 41°11' W 008°42'0 0.0
2018-Jun-10 09:30N 41°11' W 008°42'0 0.0
2018-Jun-10 08:59N 41°11' W 008°42'0 0.0
2018-Jun-10 08:29N 41°11' W 008°42'0 0.0
2018-Jun-10 07:58N 41°11' W 008°42'0 0.0
2018-Jun-10 07:29N 41°11' W 008°42'0 0.0
2018-Jun-10 06:59N 41°11' W 008°42'0 0.0
2018-Jun-10 06:29N 41°11' W 008°42'0 0.0
2018-Jun-10 05:59N 41°11' W 008°42'0 0.0
2018-Jun-10 05:28N 41°11' W 008°42'0 0.0
2018-Jun-10 05:00N 41°11' W 008°42'0 0.0
2018-Jun-10 04:29N 41°11' W 008°42'0 0.0
2018-Jun-10 04:00N 41°11' W 008°42'1 3.0
2018-Jun-10 03:30N 41°10' W 008°43'611.0
2018-Jun-10 03:00N 41°08' W 008°50'20212.6
2018-Jun-09 11:00N 40°00' W 013°00'32813.7 360 / 101017.010.8 18.013.316.0
2018-Jun-08 11:00N 38°18' W 019°42'18713.8 340 / 201020.0 5.4 18.013.317.0
2018-Jun-07 21:25N 37°20' W 023°27'613.8
2018-Jun-07 20:59N 37°18' W 023°34'713.7
2018-Jun-07 20:28N 37°16' W 023°42'613.7
2018-Jun-07 20:00N 37°14' W 023°50'713.6
2018-Jun-07 19:30N 37°12' W 023°58'714.3
2018-Jun-07 19:00N 37°10' W 024°06'713.7
2018-Jun-07 18:30N 37°07' W 024°14'713.8
2018-Jun-07 18:01N 37°05' W 024°22'5 9.2
2018-Jun-07 17:30N 37°03' W 024°28'713.2
2018-Jun-07 17:00N 37°01' W 024°36'713.2
2018-Jun-07 16:31N 36°59' W 024°44'3 5.2
2018-Jun-07 16:00N 36°58' W 024°47'2 3.2
2018-Jun-07 15:30N 36°58' W 024°49'713.5
2018-Jun-07 15:01N 36°56' W 024°57'713.6
2018-Jun-07 14:31N 36°55' W 025°05'4 6.9
2018-Jun-07 13:58N 36°57' W 025°09'0 0.0
2018-Jun-07 13:28N 36°57' W 025°09'0 0.0
2018-Jun-07 12:58N 36°57' W 025°09'0 0.0
2018-Jun-07 12:28N 36°57' W 025°09'0 0.0
2018-Jun-07 11:58N 36°57' W 025°09'0 0.0
2018-Jun-07 11:28N 36°57' W 025°09'0 0.0
2018-Jun-07 10:53N 36°57' W 025°09'0 0.0
2018-Jun-07 10:29N 36°57' W 025°09'0 0.0
2018-Jun-07 10:00N 36°57' W 025°09'0 0.0
2018-Jun-07 09:30N 36°57' W 025°09'0 0.0
2018-Jun-07 08:58N 36°57' W 025°09'0 0.0
2018-Jun-07 08:29N 36°57' W 025°09'0 0.0
2018-Jun-07 07:59N 36°57' W 025°09'1 1.6
2018-Jun-07 07:30N 36°56' W 025°09'510.1
2018-Jun-07 07:00N 36°57' W 025°15'713.4
2018-Jun-07 06:30N 37°01' W 025°22'713.6
2018-Jun-07 06:00N 37°04' W 025°30'713.5
2018-Jun-07 05:30N 37°07' W 025°37'713.4
2018-Jun-07 05:00N 37°11' W 025°44'713.6
2018-Jun-07 04:30N 37°14' W 025°52'713.4
2018-Jun-07 04:00N 37°18' W 025°59'713.6
2018-Jun-07 03:31N 37°21' W 026°06'713.1
2018-Jun-07 03:00N 37°24' W 026°14'713.4
2018-Jun-07 02:30N 37°27' W 026°21'  
Track history (hours):
 
Tides and Currents Weather Stations Pressure Air Temp Water Temp Dewpoint Dewpoint Depression Visibility Wind Speed Wind Dir Waves Ship Positions

Bremen

Operator: Hapag-Lloyd Container Line

Last reported at 2018-Jun-17 02:02 UTC. Time now 2018-Jun-20 02:09 UTC.
Position N 55°52' W 006°33'.

Length 111.5 m; beam 17 m; draft 4.8 m.

Type: Ship. MMSI: 308429000.

Date/timePositionNaut miles runAvg speedWind from/ knotsBaromVisibWave heightAir tempDewpointWater temp
2018-Jun-17 02:02N 55°52' W 006°33'1 5.7
2018-Jun-17 01:57N 55°52' W 006°33'3 5.7
2018-Jun-17 01:29N 55°49' W 006°33'3 6.1
2018-Jun-17 01:00N 55°46' W 006°33'4 7.6
2018-Jun-17 00:30N 55°43' W 006°34'5 9.1
2018-Jun-17 00:00N 55°38' W 006°31'4 8.0
2018-Jun-16 23:30N 55°35' W 006°29'3 6.7
2018-Jun-16 23:00N 55°31' W 006°27'3 6.8
2018-Jun-16 22:30N 55°28' W 006°25'3 6.6
2018-Jun-16 22:00N 55°25' W 006°23'3 6.6
2018-Jun-16 21:30N 55°22' W 006°21'3 5.5
2018-Jun-16 21:00N 55°19' W 006°19'3 5.9
2018-Jun-16 20:30N 55°17' W 006°16'3 0.3
2018-Jun-16 12:27N 55°17' W 006°12'4 8.0
2018-Jun-16 12:00N 55°14' W 006°13'1 1.8
2018-Jun-16 11:22N 55°13' W 006°14'0 0.1
2018-Jun-16 10:52N 55°13' W 006°14'0 0.0
2018-Jun-16 10:22N 55°13' W 006°14'0 0.0
2018-Jun-16 09:52N 55°13' W 006°14'0 0.0
2018-Jun-16 09:22N 55°13' W 006°14'0 0.1
2018-Jun-16 08:40N 55°13' W 006°14'0 0.0
2018-Jun-16 08:25N 55°13' W 006°14'0 0.0
2018-Jun-16 07:55N 55°13' W 006°14'0 0.0
2018-Jun-16 07:27N 55°13' W 006°14'0 0.0
2018-Jun-16 06:50N 55°13' W 006°14'0 0.0
2018-Jun-16 06:23N 55°13' W 006°14'0 0.5
2018-Jun-16 05:59N 55°13' W 006°14'3 6.9
2018-Jun-16 05:30N 55°14' W 006°08'3 6.9
2018-Jun-16 05:00N 55°13' W 006°02'5 8.9
2018-Jun-16 04:30N 55°09' W 005°58'4 8.5
2018-Jun-16 04:00N 55°05' W 005°55'12 8.5
2018-Jun-16 02:34N 54°55' W 005°45'1 8.1
2018-Jun-16 02:25N 54°54' W 005°44'4 8.0
2018-Jun-16 01:58N 54°51' W 005°40'4 8.4
2018-Jun-16 01:30N 54°48' W 005°36'5 9.4
2018-Jun-16 01:00N 54°44' W 005°31'510.0
2018-Jun-16 00:30N 54°40' W 005°26'5 9.3
2018-Jun-16 00:00N 54°36' W 005°22'4 8.9
2018-Jun-15 23:30N 54°32' W 005°19'4 8.2
2018-Jun-15 23:00N 54°28' W 005°16'4 9.0
2018-Jun-15 22:30N 54°24' W 005°12'4 8.1
2018-Jun-15 22:00N 54°21' W 005°09'4 8.3
2018-Jun-15 21:30N 54°17' W 005°06'5 8.6
2018-Jun-15 20:58N 54°13' W 005°02'13 8.5
2018-Jun-15 19:24N 54°01' W 004°51'64 3.3
2018-Jun-15 00:09N 52°58' W 004°57'69 4.0
2018-Jun-14 06:53N 51°51' W 005°27'512.3
2018-Jun-14 06:30N 51°48' W 005°21'4 8.5
2018-Jun-14 06:00N 51°45' W 005°16'3 5.1
2018-Jun-14 05:30N 51°44' W 005°20'611.9
2018-Jun-14 05:00N 51°38' W 005°22'612.0
2018-Jun-14 04:30N 51°33' W 005°25'510.9
2018-Jun-14 04:00N 51°27' W 005°26'3110.3
2018-Jun-14 00:59N 50°57' W 005°37'610.3
2018-Jun-14 00:26N 50°51' W 005°40'410.0
2018-Jun-13 23:59N 50°47' W 005°42'510.9
2018-Jun-13 23:29N 50°42' W 005°45'510.8
2018-Jun-13 23:00N 50°37' W 005°47'510.5
2018-Jun-13 22:30N 50°32' W 005°49'510.5
2018-Jun-13 22:00N 50°27' W 005°51'1510.5
2018-Jun-13 20:35N 50°12' W 005°53'710.7
2018-Jun-13 19:54N 50°05' W 005°52'  
2018-Jun-11 14:00N 42°36' W 008°42'81 4.4 1017.0 5.4 18.0 16.0
2018-Jun-10 19:22N 41°15' W 008°53'3 9.2
2018-Jun-10 19:00N 41°13' W 008°50'510.1
2018-Jun-10 18:30N 41°10' W 008°44'2 3.1
2018-Jun-10 17:58N 41°11' W 008°42'0 0.0
2018-Jun-10 17:30N 41°11' W 008°42'0 0.0
2018-Jun-10 17:00N 41°11' W 008°42'0 0.0
2018-Jun-10 16:29N 41°11' W 008°42'0 0.0
2018-Jun-10 15:59N 41°11' W 008°42'0 0.0
2018-Jun-10 15:29N 41°11' W 008°42'0 0.0
2018-Jun-10 14:59N 41°11' W 008°42'0 0.0
2018-Jun-10 13:59N 41°11' W 008°42'0 0.0
2018-Jun-10 13:29N 41°11' W 008°42'0 0.0
2018-Jun-10 12:59N 41°11' W 008°42'0 0.0
2018-Jun-10 12:29N 41°11' W 008°42'0 0.0
2018-Jun-10 11:59N 41°11' W 008°42'0 0.0
2018-Jun-10 11:25N 41°11' W 008°42'0 0.0
2018-Jun-10 11:00N 41°11' W 008°42'0 0.0
2018-Jun-10 10:28N 41°11' W 008°42'0 0.0
2018-Jun-10 09:58N 41°11' W 008°42'0 0.0
2018-Jun-10 09:30N 41°11' W 008°42'0 0.0
2018-Jun-10 08:59N 41°11' W 008°42'0 0.0
2018-Jun-10 08:29N 41°11' W 008°42'0 0.0
2018-Jun-10 07:58N 41°11' W 008°42'0 0.0
2018-Jun-10 07:29N 41°11' W 008°42'0 0.0
2018-Jun-10 06:59N 41°11' W 008°42'0 0.0
2018-Jun-10 06:29N 41°11' W 008°42'0 0.0
2018-Jun-10 05:59N 41°11' W 008°42'0 0.0
2018-Jun-10 05:28N 41°11' W 008°42'0 0.0
2018-Jun-10 05:00N 41°11' W 008°42'0 0.0
2018-Jun-10 04:29N 41°11' W 008°42'0 0.0
2018-Jun-10 04:00N 41°11' W 008°42'1 3.0
2018-Jun-10 03:30N 41°10' W 008°43'611.0
2018-Jun-10 03:00N 41°08' W 008°50'20212.6
2018-Jun-09 11:00N 40°00' W 013°00'32813.7 360 / 101017.010.8 18.013.316.0
2018-Jun-08 11:00N 38°18' W 019°42'18713.8 340 / 201020.0 5.4 18.013.317.0
2018-Jun-07 21:25N 37°20' W 023°27'613.8
2018-Jun-07 20:59N 37°18' W 023°34'713.7
2018-Jun-07 20:28N 37°16' W 023°42'613.7
2018-Jun-07 20:00N 37°14' W 023°50'713.6
2018-Jun-07 19:30N 37°12' W 023°58'714.3
2018-Jun-07 19:00N 37°10' W 024°06'713.7
2018-Jun-07 18:30N 37°07' W 024°14'713.8
2018-Jun-07 18:01N 37°05' W 024°22'5 9.2
2018-Jun-07 17:30N 37°03' W 024°28'713.2
2018-Jun-07 17:00N 37°01' W 024°36'713.2
2018-Jun-07 16:31N 36°59' W 024°44'3 5.2
2018-Jun-07 16:00N 36°58' W 024°47'2 3.2
2018-Jun-07 15:30N 36°58' W 024°49'713.5
2018-Jun-07 15:01N 36°56' W 024°57'713.6
2018-Jun-07 14:31N 36°55' W 025°05'4 6.9
2018-Jun-07 13:58N 36°57' W 025°09'0 0.0
2018-Jun-07 13:28N 36°57' W 025°09'0 0.0
2018-Jun-07 12:58N 36°57' W 025°09'0 0.0
2018-Jun-07 12:28N 36°57' W 025°09'0 0.0
2018-Jun-07 11:58N 36°57' W 025°09'0 0.0
2018-Jun-07 11:28N 36°57' W 025°09'0 0.0
2018-Jun-07 10:53N 36°57' W 025°09'0 0.0
2018-Jun-07 10:29N 36°57' W 025°09'0 0.0
2018-Jun-07 10:00N 36°57' W 025°09'0 0.0
2018-Jun-07 09:30N 36°57' W 025°09'0 0.0
2018-Jun-07 08:58N 36°57' W 025°09'0 0.0
2018-Jun-07 08:29N 36°57' W 025°09'0 0.0
2018-Jun-07 07:59N 36°57' W 025°09'1 1.6
2018-Jun-07 07:30N 36°56' W 025°09'510.1
2018-Jun-07 07:00N 36°57' W 025°15'713.4
2018-Jun-07 06:30N 37°01' W 025°22'713.6
2018-Jun-07 06:00N 37°04' W 025°30'713.5
2018-Jun-07 05:30N 37°07' W 025°37'713.4
2018-Jun-07 05:00N 37°11' W 025°44'713.6
2018-Jun-07 04:30N 37°14' W 025°52'713.4
2018-Jun-07 04:00N 37°18' W 025°59'713.6
2018-Jun-07 03:31N 37°21' W 026°06'713.1
2018-Jun-07 03:00N 37°24' W 026°14'713.4
2018-Jun-07 02:30N 37°27' W 026°21'  

Dump ship's entire track history